Time,TemperatureF,DewpointF,PressureIn,WindDirection,WindDirectionDegrees,WindSpeedMPH,WindSpeedGustMPH,Humidity,HourlyPrecipIn,Conditions,Clouds,dailyrainin,SoftwareType,DateUTC
2013-01-26 00:02:00,41.9,24.1,29.86,WSW,242,19.6,19.6,49,0.00,CLR,,0.00,WeatherDisplay:10.37,2013-01-26 07:02:00,
2013-01-26 00:07:00,42.1,23.3,29.86,West,279,10.4,10.4,47,0.00,CLR,,0.00,WeatherDisplay:10.37,2013-01-26 07:07:00,
2013-01-26 00:12:00,41.9,23.6,29.86,West,259,7.0,7.0,48,0.00,CLR,,0.00,WeatherDisplay:10.37,2013-01-26 07:12:00,
2013-01-26 00:17:00,41.6,23.3,29.86,WSW,252,16.0,16.0,48,0.00,CLR,,0.00,WeatherDisplay:10.37,2013-01-26 07:17:00,
2013-01-26 00:22:00,41.8,23.0,29.86,SW,225,10.4,10.4,47,0.00,CLR,,0.00,WeatherDisplay:10.37,2013-01-26 07:22:00,
2013-01-26 00:27:00,41.6,23.3,29.86,WNW,296,10.4,10.4,48,0.00,CLR,,0.00,WeatherDisplay:10.37,2013-01-26 07:27:00,
2013-01-26 00:32:00,41.9,23.1,29.86,WSW,241,24.2,24.2,47,0.00,CLR,,0.00,WeatherDisplay:10.37,2013-01-26 07:32:00,
2013-01-26 00:37:00,42.1,23.3,29.86,WSW,241,11.5,11.5,47,0.00,CLR,,0.00,WeatherDisplay:10.37,2013-01-26 07:37:00,
2013-01-26 00:42:00,41.8,23.0,29.86,WSW,244,10.4,10.4,47,0.00,CLR,,0.00,WeatherDisplay:10.37,2013-01-26 07:42:00,
2013-01-26 00:47:00,41.6,23.3,29.85,WSW,244,17.3,17.3,48,0.00,CLR,,0.00,WeatherDisplay:10.37,2013-01-26 07:47:00,
2013-01-26 00:52:00,41.5,23.7,29.85,WSW,245,18.0,18.0,49,0.00,CLR,,0.00,WeatherDisplay:10.37,2013-01-26 07:52:00,
2013-01-26 00:57:00,41.5,23.2,29.85,WSW,245,16.1,16.1,48,0.00,CLR,,0.00,WeatherDisplay:10.37,2013-01-26 07:57:00,
2013-01-26 01:02:00,41.5,22.7,29.85,WSW,238,16.1,16.1,47,0.00,CLR,,0.00,WeatherDisplay:10.37,2013-01-26 08:02:00,
2013-01-26 01:07:00,41.6,22.8,29.85,WSW,254,20.7,20.7,47,0.00,CLR,,0.00,WeatherDisplay:10.37,2013-01-26 08:07:00,
2013-01-26 01:12:00,42.1,22.8,29.85,WSW,251,21.9,21.9,46,0.00,CLR,,0.00,WeatherDisplay:10.37,2013-01-26 08:12:00,
2013-01-26 01:17:00,41.9,23.1,29.84,WSW,237,11.5,11.5,47,0.00,CLR,,0.00,WeatherDisplay:10.37,2013-01-26 08:17:00,
2013-01-26 01:22:00,41.5,23.2,29.84,SW,223,19.6,19.6,48,0.00,CLR,,0.00,WeatherDisplay:10.37,2013-01-26 08:22:00,
2013-01-26 01:27:00,41.6,23.8,29.84,WSW,247,16.1,16.1,49,0.00,CLR,,0.00,WeatherDisplay:10.37,2013-01-26 08:27:00,
2013-01-26 01:32:00,41.5,24.2,29.84,WSW,255,24.2,24.2,50,0.00,CLR,,0.00,WeatherDisplay:10.37,2013-01-26 08:32:00,
2013-01-26 01:37:00,41.5,24.7,29.84,WSW,249,25.3,25.3,51,0.00,CLR,,0.00,WeatherDisplay:10.37,2013-01-26 08:37:00,
2013-01-26 01:42:00,41.3,24.5,29.84,SW,225,19.6,19.6,51,0.00,CLR,,0.00,WeatherDisplay:10.37,2013-01-26 08:42:00,
2013-01-26 01:47:00,41.1,24.3,29.86,SW,232,12.7,12.7,51,0.00,CLR,,0.00,WeatherDisplay:10.37,2013-01-26 08:47:00,
2013-01-26 01:52:00,41.2,24.4,29.86,WSW,241,19.6,19.6,51,0.00,CLR,,0.00,WeatherDisplay:10.37,2013-01-26 08:52:00,
2013-01-26 01:57:00,40.8,24.1,29.86,WSW,240,12.0,12.0,51,0.00,CLR,,0.00,WeatherDisplay:10.37,2013-01-26 08:57:00,
2013-01-26 02:02:00,40.8,24.1,29.86,WSW,238,17.3,17.3,51,0.00,CLR,,0.00,WeatherDisplay:10.37,2013-01-26 09:02:00,
2013-01-26 02:07:00,40.9,24.6,29.86,SW,217,25.3,25.3,52,0.00,CLR,,0.00,WeatherDisplay:10.37,2013-01-26 09:07:00,
2013-01-26 02:12:00,41.1,24.8,29.86,WSW,237,26.5,26.5,52,0.00,CLR,,0.00,WeatherDisplay:10.37,2013-01-26 09:12:00,
2013-01-26 02:17:00,41.1,24.8,29.85,WSW,237,19.6,19.6,52,0.00,CLR,,0.00,WeatherDisplay:10.37,2013-01-26 09:17:00,
2013-01-26 02:22:00,41.1,24.8,29.85,West,266,25.0,25.0,52,0.00,CLR,,0.00,WeatherDisplay:10.37,2013-01-26 09:22:00,
2013-01-26 02:27:00,40.8,25.0,29.85,WSW,240,26.5,26.5,53,0.00,CLR,,0.00,WeatherDisplay:10.37,2013-01-26 09:27:00,
2013-01-26 02:32:00,40.6,24.8,29.85,SW,230,21.9,21.9,53,0.00,CLR,,0.00,WeatherDisplay:10.37,2013-01-26 09:32:00,
2013-01-26 02:37:00,40.8,24.5,29.85,SW,231,17.3,17.3,52,0.00,CLR,,0.00,WeatherDisplay:10.37,2013-01-26 09:37:00,
2013-01-26 02:42:00,40.9,24.1,29.85,WSW,247,26.5,26.5,51,0.00,CLR,,0.00,WeatherDisplay:10.37,2013-01-26 09:42:00,
2013-01-26 02:47:00,41.1,23.9,29.85,WSW,238,19.6,19.6,50,0.00,CLR,,0.00,WeatherDisplay:10.37,2013-01-26 09:47:00,
2013-01-26 02:52:00,40.8,23.6,29.85,SW,231,13.8,13.8,50,0.00,CLR,,0.00,WeatherDisplay:10.37,2013-01-26 09:52:00,
2013-01-26 02:57:00,40.8,24.1,29.85,SW,231,20.7,20.7,51,0.00,CLR,,0.00,WeatherDisplay:10.37,2013-01-26 09:57:00,
2013-01-26 03:02:00,40.8,23.6,29.86,SW,216,11.5,11.5,50,0.00,CLR,,0.00,WeatherDisplay:10.37,2013-01-26 10:02:00,
2013-01-26 03:07:00,40.5,23.8,29.86,WSW,241,12.7,12.7,51,0.00,CLR,,0.00,WeatherDisplay:10.37,2013-01-26 10:07:00,
2013-01-26 03:12:00,40.5,23.8,29.86,SW,216,21.9,21.9,51,0.00,CLR,,0.00,WeatherDisplay:10.37,2013-01-26 10:12:00,
2013-01-26 03:17:00,40.8,24.1,29.86,SW,223,20.7,20.7,51,0.00,CLR,,0.00,WeatherDisplay:10.37,2013-01-26 10:17:00,
2013-01-26 03:22:00,40.6,23.9,29.86,SW,227,16.1,16.1,51,0.00,CLR,,0.00,WeatherDisplay:10.37,2013-01-26 10:22:00,
2013-01-26 03:27:00,40.5,23.8,29.86,WSW,242,19.6,19.6,51,0.00,CLR,,0.00,WeatherDisplay:10.37,2013-01-26 10:27:00,
2013-01-26 03:32:00,40.5,23.3,29.87,SW,234,19.6,19.6,50,0.00,CLR,,0.00,WeatherDisplay:10.37,2013-01-26 10:32:00,
2013-01-26 03:37:00,40.5,23.3,29.87,West,261,24.0,24.0,50,0.00,CLR,,0.00,WeatherDisplay:10.37,2013-01-26 10:37:00,
2013-01-26 03:42:00,40.5,22.8,29.87,WNW,285,27.6,27.6,49,0.00,CLR,,0.00,WeatherDisplay:10.37,2013-01-26 10:42:00,
2013-01-26 03:47:00,40.3,22.6,29.85,SW,225,17.3,17.3,49,0.00,CLR,,0.00,WeatherDisplay:10.37,2013-01-26 10:47:00,
2013-01-26 03:52:00,40.3,22.6,29.85,WSW,241,13.8,13.8,49,0.00,CLR,,0.00,WeatherDisplay:10.37,2013-01-26 10:52:00,
2013-01-26 03:57:00,40.2,22.1,29.85,WSW,248,11.5,11.5,48,0.00,CLR,,0.00,WeatherDisplay:10.37,2013-01-26 10:57:00,
2013-01-26 04:02:00,40.1,22.0,29.87,WSW,244,13.8,13.8,48,0.00,CLR,,0.00,WeatherDisplay:10.37,2013-01-26 11:02:00,
2013-01-26 04:07:00,40.1,22.0,29.87,SW,234,13.8,13.8,48,0.00,CLR,,0.00,WeatherDisplay:10.37,2013-01-26 11:07:00,
2013-01-26 04:12:00,39.9,21.8,29.87,SW,228,11.5,11.5,48,0.00,CLR,,0.00,WeatherDisplay:10.37,2013-01-26 11:12:00,
2013-01-26 04:17:00,39.8,22.2,29.86,SW,232,12.7,12.7,49,0.00,CLR,,0.00,WeatherDisplay:10.37,2013-01-26 11:17:00,
2013-01-26 04:22:00,39.6,22.0,29.86,SW,223,11.5,11.5,49,0.00,CLR,,0.00,WeatherDisplay:10.37,2013-01-26 11:22:00,
2013-01-26 04:27:00,39.5,21.9,29.86,SW,232,14.0,14.0,49,0.00,CLR,,0.00,WeatherDisplay:10.37,2013-01-26 11:27:00,
2013-01-26 04:32:00,39.5,21.9,29.87,SW,223,14.0,14.0,49,0.00,CLR,,0.00,WeatherDisplay:10.37,2013-01-26 11:32:00,
2013-01-26 04:37:00,39.6,21.5,29.87,West,259,14.0,14.0,48,0.00,CLR,,0.00,WeatherDisplay:10.37,2013-01-26 11:37:00,
2013-01-26 04:42:00,39.8,21.2,29.87,WSW,251,6.9,6.9,47,0.00,CLR,,0.00,WeatherDisplay:10.37,2013-01-26 11:42:00,
2013-01-26 04:47:00,39.6,21.5,29.86,WNW,283,17.3,17.3,48,0.00,CLR,,0.00,WeatherDisplay:10.37,2013-01-26 11:47:00,
2013-01-26 04:52:00,40.1,21.5,29.86,WSW,237,11.5,11.5,47,0.00,CLR,,0.00,WeatherDisplay:10.37,2013-01-26 11:52:00,
2013-01-26 04:57:00,39.8,21.7,29.86,SW,221,10.4,10.4,48,0.00,CLR,,0.00,WeatherDisplay:10.37,2013-01-26 11:57:00,
2013-01-26 05:02:00,39.8,21.2,29.86,WSW,244,11.5,11.5,47,0.00,CLR,,0.00,WeatherDisplay:10.37,2013-01-26 12:02:00,
2013-01-26 05:07:00,39.6,21.5,29.86,SW,234,10.0,10.0,48,0.00,CLR,,0.00,WeatherDisplay:10.37,2013-01-26 12:07:00,
2013-01-26 05:12:00,39.5,21.9,29.86,WSW,249,11.5,11.5,49,0.00,CLR,,0.00,WeatherDisplay:10.37,2013-01-26 12:12:00,
2013-01-26 05:17:00,39.3,21.7,29.88,SW,235,11.5,11.5,49,0.00,CLR,,0.00,WeatherDisplay:10.37,2013-01-26 12:17:00,
2013-01-26 05:22:00,39.8,21.7,29.88,West,269,17.3,17.3,48,0.00,CLR,,0.00,WeatherDisplay:10.37,2013-01-26 12:22:00,
2013-01-26 05:27:00,39.8,21.7,29.88,WSW,237,10.4,10.4,48,0.00,CLR,,0.00,WeatherDisplay:10.37,2013-01-26 12:27:00,
2013-01-26 05:32:00,39.6,22.0,29.88,West,269,16.1,16.1,49,0.00,CLR,,0.00,WeatherDisplay:10.37,2013-01-26 12:32:00,
2013-01-26 05:37:00,39.6,21.5,29.88,West,264,16.1,16.1,48,0.00,CLR,,0.00,WeatherDisplay:10.37,2013-01-26 12:37:00,
2013-01-26 05:42:00,39.6,22.0,29.88,WSW,249,11.5,11.5,49,0.00,CLR,,0.00,WeatherDisplay:10.37,2013-01-26 12:42:00,
2013-01-26 05:47:00,39.5,21.9,29.86,West,278,11.5,11.5,49,0.00,CLR,,0.00,WeatherDisplay:10.37,2013-01-26 12:47:00,
2013-01-26 05:52:00,39.5,21.9,29.86,WSW,252,11.5,11.5,49,0.00,CLR,,0.00,WeatherDisplay:10.37,2013-01-26 12:52:00,
2013-01-26 05:57:00,39.6,22.0,29.86,SW,232,17.3,17.3,49,0.00,CLR,,0.00,WeatherDisplay:10.37,2013-01-26 12:57:00,
2013-01-26 06:02:00,39.3,21.7,29.86,WSW,248,11.5,11.5,49,0.00,CLR,,0.00,WeatherDisplay:10.37,2013-01-26 13:02:00,
2013-01-26 06:07:00,39.3,21.7,29.86,WSW,258,13.8,13.8,49,0.00,CLR,,0.00,WeatherDisplay:10.37,2013-01-26 13:07:00,
2013-01-26 06:12:00,39.5,21.4,29.86,SW,234,16.1,16.1,48,0.00,CLR,,0.00,WeatherDisplay:10.37,2013-01-26 13:12:00,
2013-01-26 06:17:00,39.6,21.5,29.86,SW,224,16.1,16.1,48,0.00,CLR,,0.00,WeatherDisplay:10.37,2013-01-26 13:17:00,
2013-01-26 06:22:00,39.8,21.7,29.86,SW,216,24.2,24.2,48,0.00,CLR,,0.00,WeatherDisplay:10.37,2013-01-26 13:22:00,
2013-01-26 06:27:00,39.6,21.5,29.86,West,261,16.1,16.1,48,0.00,CLR,,0.00,WeatherDisplay:10.37,2013-01-26 13:27:00,
2013-01-26 06:32:00,39.5,21.4,29.87,WSW,245,12.7,12.7,48,0.00,CLR,,0.00,WeatherDisplay:10.37,2013-01-26 13:32:00,
2013-01-26 06:37:00,39.5,21.9,29.87,WSW,249,26.5,26.5,49,0.00,CLR,,0.00,WeatherDisplay:10.37,2013-01-26 13:37:00,
2013-01-26 06:42:00,39.5,21.9,29.87,WSW,242,18.4,18.4,49,0.00,CLR,,0.00,WeatherDisplay:10.37,2013-01-26 13:42:00,
2013-01-26 06:47:00,39.6,21.5,29.88,WSW,244,18.4,18.4,48,0.00,CLR,,0.00,WeatherDisplay:10.37,2013-01-26 13:47:00,
2013-01-26 06:52:00,39.3,21.2,29.88,WSW,242,11.5,11.5,48,0.00,CLR,,0.00,WeatherDisplay:10.37,2013-01-26 13:52:00,
2013-01-26 06:57:00,39.2,21.1,29.88,WSW,247,10.0,10.0,48,0.00,CLR,,0.00,WeatherDisplay:10.37,2013-01-26 13:57:00,
2013-01-26 07:02:00,39.3,20.7,29.90,West,276,5.8,5.8,47,0.00,CLR,,0.00,WeatherDisplay:10.37,2013-01-26 14:02:00,
2013-01-26 07:07:00,39.2,20.6,29.90,WNW,299,4.6,4.6,47,0.00,CLR,,0.00,WeatherDisplay:10.37,2013-01-26 14:07:00,
2013-01-26 07:12:00,39.1,21.0,29.90,NW,317,3.5,3.5,48,0.00,CLR,,0.00,WeatherDisplay:10.37,2013-01-26 14:12:00,
2013-01-26 07:17:00,39.1,21.0,29.90,NNW,334,6.0,6.0,48,0.00,CLR,,0.00,WeatherDisplay:10.37,2013-01-26 14:17:00,
2013-01-26 07:22:00,39.1,21.0,29.90,NW,314,11.5,11.5,48,0.00,CLR,,0.00,WeatherDisplay:10.37,2013-01-26 14:22:00,
2013-01-26 07:27:00,38.9,20.9,29.90,NW,326,3.5,3.5,48,0.00,CLR,,0.00,WeatherDisplay:10.37,2013-01-26 14:27:00,
2013-01-26 07:32:00,38.8,20.8,29.90,NW,306,8.1,8.1,48,0.00,CLR,,0.00,WeatherDisplay:10.37,2013-01-26 14:32:00,
2013-01-26 07:37:00,38.8,20.8,29.90,NW,307,4.6,4.6,48,0.00,CLR,,0.00,WeatherDisplay:10.37,2013-01-26 14:37:00,
2013-01-26 07:42:00,38.8,20.8,29.90,NW,312,3.5,3.5,48,0.00,CLR,,0.00,WeatherDisplay:10.37,2013-01-26 14:42:00,
2013-01-26 07:47:00,38.8,21.3,29.90,North,4,6.0,6.0,49,0.00,CLR,,0.00,WeatherDisplay:10.37,2013-01-26 14:47:00,
2013-01-26 07:52:00,39.1,21.0,29.90,West,259,8.1,8.1,48,0.00,CLR,,0.00,WeatherDisplay:10.37,2013-01-26 14:52:00,
2013-01-26 07:57:00,39.6,21.0,29.90,WNW,292,3.0,3.0,47,0.00,CLR,,0.00,WeatherDisplay:10.37,2013-01-26 14:57:00,
2013-01-26 08:02:00,39.9,21.3,29.89,NW,310,3.0,3.0,47,0.00,CLR,,0.00,WeatherDisplay:10.37,2013-01-26 15:02:00,
2013-01-26 08:07:00,40.2,21.6,29.89,NW,310,0.0,0.0,47,0.00,CLR,,0.00,WeatherDisplay:10.37,2013-01-26 15:07:00,
2013-01-26 08:12:00,40.8,21.1,29.89,NW,310,2.3,2.3,45,0.00,CLR,,0.00,WeatherDisplay:10.37,2013-01-26 15:12:00,
2013-01-26 08:17:00,41.2,20.9,29.89,NNW,330,5.8,5.8,44,0.00,CLR,,0.00,WeatherDisplay:10.37,2013-01-26 15:17:00,
2013-01-26 08:22:00,41.2,20.9,29.89,WNW,288,8.1,8.1,44,0.00,CLR,,0.00,WeatherDisplay:10.37,2013-01-26 15:22:00,
2013-01-26 08:27:00,41.6,20.7,29.89,WNW,299,8.1,8.1,43,0.00,CLR,,0.00,WeatherDisplay:10.37,2013-01-26 15:27:00,
2013-01-26 08:32:00,42.3,20.8,29.87,WNW,293,8.1,8.1,42,0.00,CLR,,0.00,WeatherDisplay:10.37,2013-01-26 15:32:00,
2013-01-26 08:37:00,42.8,20.7,29.87,WNW,290,6.9,6.9,41,0.00,CLR,,0.00,WeatherDisplay:10.37,2013-01-26 15:37:00,
2013-01-26 08:42:00,43.1,21.0,29.87,WNW,288,5.8,5.8,41,0.00,CLR,,0.00,WeatherDisplay:10.37,2013-01-26 15:42:00,
2013-01-26 08:47:00,43.3,20.6,29.88,WNW,288,6.9,6.9,40,0.00,CLR,,0.00,WeatherDisplay:10.37,2013-01-26 15:47:00,
2013-01-26 08:52:00,43.6,20.8,29.88,WNW,295,6.9,6.9,40,0.00,CLR,,0.00,WeatherDisplay:10.37,2013-01-26 15:52:00,
2013-01-26 08:57:00,43.6,20.2,29.88,WNW,302,8.1,8.1,39,0.00,CLR,,0.00,WeatherDisplay:10.37,2013-01-26 15:57:00,
2013-01-26 09:02:00,43.5,20.2,29.85,West,261,11.5,11.5,39,0.00,CLR,,0.00,WeatherDisplay:10.37,2013-01-26 16:02:00,
2013-01-26 09:07:00,43.5,20.2,29.85,WSW,244,10.4,10.4,39,0.00,CLR,,0.00,WeatherDisplay:10.37,2013-01-26 16:07:00,
2013-01-26 09:12:00,43.9,19.9,29.85,WSW,249,4.6,4.6,38,0.00,CLR,,0.00,WeatherDisplay:10.37,2013-01-26 16:12:00,
2013-01-26 09:17:00,43.6,20.8,29.85,West,261,5.8,5.8,40,0.00,CLR,,0.00,WeatherDisplay:10.37,2013-01-26 16:17:00,
2013-01-26 09:22:00,43.6,20.2,29.85,SW,220,6.0,6.0,39,0.00,CLR,,0.00,WeatherDisplay:10.37,2013-01-26 16:22:00,
2013-01-26 09:27:00,43.3,19.4,29.85,West,266,5.8,5.8,38,0.00,CLR,,0.00,WeatherDisplay:10.37,2013-01-26 16:27:00,
2013-01-26 09:32:00,43.6,20.2,29.86,West,259,6.9,6.9,39,0.00,CLR,,0.00,WeatherDisplay:10.37,2013-01-26 16:32:00,
2013-01-26 09:37:00,43.9,19.9,29.86,West,276,10.4,10.4,38,0.00,CLR,,0.00,WeatherDisplay:10.37,2013-01-26 16:37:00,
2013-01-26 09:42:00,43.6,20.2,29.86,SW,234,8.1,8.1,39,0.00,CLR,,0.00,WeatherDisplay:10.37,2013-01-26 16:42:00,
2013-01-26 09:47:00,43.2,20.5,29.87,West,266,10.4,10.4,40,0.00,CLR,,0.00,WeatherDisplay:10.37,2013-01-26 16:47:00,
2013-01-26 09:52:00,43.6,19.6,29.87,WNW,286,10.4,10.4,38,0.00,CLR,,0.00,WeatherDisplay:10.37,2013-01-26 16:52:00,
2013-01-26 09:57:00,44.3,19.6,29.87,WSW,258,11.5,11.5,37,0.00,CLR,,0.00,WeatherDisplay:10.37,2013-01-26 16:57:00,
2013-01-26 10:02:00,44.5,19.2,29.86,WNW,283,12.7,12.7,36,0.00,CLR,,0.00,WeatherDisplay:10.37,2013-01-26 17:02:00,
2013-01-26 10:07:00,44.5,19.2,29.86,SSW,204,11.5,11.5,36,0.00,CLR,,0.00,WeatherDisplay:10.37,2013-01-26 17:07:00,
2013-01-26 10:12:00,44.5,19.8,29.86,SSW,207,10.4,10.4,37,0.00,CLR,,0.00,WeatherDisplay:10.37,2013-01-26 17:12:00,
2013-01-26 10:17:00,44.5,19.8,29.86,SSW,208,13.8,13.8,37,0.00,CLR,,0.00,WeatherDisplay:10.37,2013-01-26 17:17:00,
2013-01-26 10:22:00,44.9,19.5,29.86,South,184,11.5,11.5,36,0.00,CLR,,0.00,WeatherDisplay:10.37,2013-01-26 17:22:00,
2013-01-26 10:27:00,45.5,19.4,29.86,SSE,159,11.5,11.5,35,0.00,CLR,,0.00,WeatherDisplay:10.37,2013-01-26 17:27:00,
2013-01-26 10:32:00,45.8,19.7,29.85,SW,214,11.5,11.5,35,0.00,CLR,,0.00,WeatherDisplay:10.37,2013-01-26 17:32:00,
2013-01-26 10:37:00,46.0,19.2,29.85,South,184,11.5,11.5,34,0.00,CLR,,0.00,WeatherDisplay:10.37,2013-01-26 17:37:00,
2013-01-26 10:42:00,46.0,18.5,29.85,WSW,248,8.1,8.1,33,0.00,CLR,,0.00,WeatherDisplay:10.37,2013-01-26 17:42:00,
2013-01-26 10:47:00,46.2,19.3,29.85,SW,218,11.5,11.5,34,0.00,CLR,,0.00,WeatherDisplay:10.37,2013-01-26 17:47:00,
2013-01-26 10:52:00,46.2,18.6,29.85,WNW,282,11.5,11.5,33,0.00,CLR,,0.00,WeatherDisplay:10.37,2013-01-26 17:52:00,
2013-01-26 10:57:00,46.1,18.6,29.85,WSW,254,12.7,12.7,33,0.00,CLR,,0.00,WeatherDisplay:10.37,2013-01-26 17:57:00,
2013-01-26 11:02:00,46.1,18.6,29.84,SW,232,6.0,6.0,33,0.00,CLR,,0.00,WeatherDisplay:10.37,2013-01-26 18:02:00,
2013-01-26 11:07:00,46.2,18.6,29.84,West,266,8.1,8.1,33,0.00,CLR,,0.00,WeatherDisplay:10.37,2013-01-26 18:07:00,
2013-01-26 11:12:00,46.1,18.6,29.84,WSW,258,6.9,6.9,33,0.00,CLR,,0.00,WeatherDisplay:10.37,2013-01-26 18:12:00,
2013-01-26 11:17:00,46.1,17.8,29.83,SW,223,6.9,6.9,32,0.00,CLR,,0.00,WeatherDisplay:10.37,2013-01-26 18:17:00,
2013-01-26 11:22:00,46.2,18.6,29.83,WSW,251,8.1,8.1,33,0.00,CLR,,0.00,WeatherDisplay:10.37,2013-01-26 18:22:00,
2013-01-26 11:27:00,46.1,17.8,29.83,SW,214,5.8,5.8,32,0.00,CLR,,0.00,WeatherDisplay:10.37,2013-01-26 18:27:00,
2013-01-26 11:32:00,46.4,18.1,29.82,West,273,11.5,11.5,32,0.00,CLR,,0.00,WeatherDisplay:10.37,2013-01-26 18:32:00,
2013-01-26 11:37:00,46.7,18.4,29.82,West,269,10.4,10.4,32,0.00,CLR,,0.00,WeatherDisplay:10.37,2013-01-26 18:37:00,
2013-01-26 11:42:00,46.5,17.4,29.82,West,266,6.9,6.9,31,0.00,CLR,,0.00,WeatherDisplay:10.37,2013-01-26 18:42:00,
2013-01-26 11:47:00,46.4,18.1,29.80,West,259,7.0,7.0,32,0.00,CLR,,0.00,WeatherDisplay:10.37,2013-01-26 18:47:00,
2013-01-26 11:52:00,46.7,18.4,29.80,WSW,240,8.1,8.1,32,0.00,CLR,,0.00,WeatherDisplay:10.37,2013-01-26 18:52:00,
2013-01-26 11:57:00,46.7,18.4,29.80,SSW,203,10.4,10.4,32,0.00,CLR,,0.00,WeatherDisplay:10.37,2013-01-26 18:57:00,
2013-01-26 12:02:00,46.7,18.4,29.79,SW,227,10.4,10.4,32,0.00,CLR,,0.00,WeatherDisplay:10.37,2013-01-26 19:02:00,
2013-01-26 12:07:00,46.7,18.4,29.79,SW,225,11.5,11.5,32,0.00,CLR,,0.00,WeatherDisplay:10.37,2013-01-26 19:07:00,
2013-01-26 12:12:00,46.5,18.2,29.79,West,261,11.5,11.5,32,0.00,CLR,,0.00,WeatherDisplay:10.37,2013-01-26 19:12:00,
2013-01-26 12:17:00,46.5,18.2,29.78,WSW,256,12.0,12.0,32,0.00,CLR,,0.00,WeatherDisplay:10.37,2013-01-26 19:17:00,
2013-01-26 12:22:00,46.8,17.7,29.78,WSW,241,11.5,11.5,31,0.00,CLR,,0.00,WeatherDisplay:10.37,2013-01-26 19:22:00,
2013-01-26 12:27:00,47.0,17.9,29.78,WSW,247,11.5,11.5,31,0.00,CLR,,0.00,WeatherDisplay:10.37,2013-01-26 19:27:00,
2013-01-26 12:32:00,46.8,17.7,29.76,SW,223,8.1,8.1,31,0.00,CLR,,0.00,WeatherDisplay:10.37,2013-01-26 19:32:00,
2013-01-26 12:37:00,47.1,18.0,29.76,WSW,256,10.4,10.4,31,0.00,CLR,,0.00,WeatherDisplay:10.37,2013-01-26 19:37:00,
2013-01-26 12:42:00,47.7,16.9,29.76,WSW,238,10.4,10.4,29,0.00,CLR,,0.00,WeatherDisplay:10.37,2013-01-26 19:42:00,
2013-01-26 12:47:00,48.2,17.4,29.75,West,268,11.5,11.5,29,0.00,CLR,,0.00,WeatherDisplay:10.37,2013-01-26 19:47:00,
2013-01-26 12:52:00,48.5,16.8,29.75,SSW,211,13.0,13.0,28,0.00,CLR,,0.00,WeatherDisplay:10.37,2013-01-26 19:52:00,
2013-01-26 12:57:00,48.9,17.2,29.75,SW,227,11.5,11.5,28,0.00,CLR,,0.00,WeatherDisplay:10.37,2013-01-26 19:57:00,
2013-01-26 13:02:00,48.8,16.2,29.72,SSW,210,11.5,11.5,27,0.00,CLR,,0.00,WeatherDisplay:10.37,2013-01-26 20:02:00,
2013-01-26 13:07:00,48.9,16.3,29.72,WSW,248,12.7,12.7,27,0.00,CLR,,0.00,WeatherDisplay:10.37,2013-01-26 20:07:00,
2013-01-26 13:12:00,49.4,16.8,29.72,SW,220,11.5,11.5,27,0.00,CLR,,0.00,WeatherDisplay:10.37,2013-01-26 20:12:00,
2013-01-26 13:17:00,49.8,17.1,29.71,WSW,242,12.7,12.7,27,0.00,CLR,,0.00,WeatherDisplay:10.37,2013-01-26 20:17:00,
2013-01-26 13:22:00,49.5,16.9,29.71,West,279,10.4,10.4,27,0.00,CLR,,0.00,WeatherDisplay:10.37,2013-01-26 20:22:00,
2013-01-26 13:27:00,49.4,16.8,29.71,WSW,237,10.4,10.4,27,0.00,CLR,,0.00,WeatherDisplay:10.37,2013-01-26 20:27:00,
2013-01-26 13:32:00,49.2,16.6,29.71,SW,221,11.5,11.5,27,0.00,CLR,,0.00,WeatherDisplay:10.37,2013-01-26 20:32:00,
2013-01-26 13:37:00,49.4,15.9,29.71,WSW,248,5.8,5.8,26,0.00,CLR,,0.00,WeatherDisplay:10.37,2013-01-26 20:37:00,
2013-01-26 13:42:00,49.5,16.0,29.71,WNW,299,8.1,8.1,26,0.00,CLR,,0.00,WeatherDisplay:10.37,2013-01-26 20:42:00,
2013-01-26 13:47:00,49.8,16.2,29.70,West,262,7.0,7.0,26,0.00,CLR,,0.00,WeatherDisplay:10.37,2013-01-26 20:47:00,
2013-01-26 13:52:00,50.7,15.2,29.70,West,275,6.0,6.0,24,0.00,CLR,,0.00,WeatherDisplay:10.37,2013-01-26 20:52:00,
2013-01-26 13:57:00,51.4,15.8,29.70,WNW,296,10.4,10.4,24,0.00,CLR,,0.00,WeatherDisplay:10.37,2013-01-26 20:57:00,
2013-01-26 14:02:00,51.1,15.5,29.68,West,280,5.0,5.0,24,0.00,CLR,,0.00,WeatherDisplay:10.37,2013-01-26 21:02:00,
2013-01-26 14:07:00,50.2,15.7,29.68,WNW,283,17.3,17.3,25,0.00,CLR,,0.00,WeatherDisplay:10.37,2013-01-26 21:07:00,
2013-01-26 14:12:00,49.6,15.2,29.68,West,273,11.5,11.5,25,0.00,CLR,,0.00,WeatherDisplay:10.37,2013-01-26 21:12:00,
2013-01-26 14:17:00,49.4,15.0,29.69,WNW,292,8.1,8.1,25,0.00,CLR,,0.00,WeatherDisplay:10.37,2013-01-26 21:17:00,
2013-01-26 14:22:00,49.4,15.0,29.69,WSW,255,6.9,6.9,25,0.00,CLR,,0.00,WeatherDisplay:10.37,2013-01-26 21:22:00,
2013-01-26 14:27:00,49.4,15.0,29.69,WSW,240,6.9,6.9,25,0.00,CLR,,0.00,WeatherDisplay:10.37,2013-01-26 21:27:00,
2013-01-26 14:32:00,49.8,14.4,29.69,SW,217,5.8,5.8,24,0.00,CLR,,0.00,WeatherDisplay:10.37,2013-01-26 21:32:00,
2013-01-26 14:37:00,49.6,14.2,29.69,WNW,282,6.9,6.9,24,0.00,CLR,,0.00,WeatherDisplay:10.37,2013-01-26 21:37:00,
2013-01-26 14:42:00,49.4,15.0,29.69,WNW,282,5.8,5.8,25,0.00,CLR,,0.00,WeatherDisplay:10.37,2013-01-26 21:42:00,
2013-01-26 14:47:00,49.1,14.7,29.69,WNW,282,5.0,5.0,25,0.00,CLR,,0.00,WeatherDisplay:10.37,2013-01-26 21:47:00,
2013-01-26 14:52:00,48.9,14.6,29.69,West,280,2.3,0.0,25,0.00,CLR,,0.00,WeatherDisplay:10.37,2013-01-26 21:52:00,
2013-01-26 14:57:00,49.1,14.7,29.69,West,280,0.0,0.0,25,0.00,CLR,,0.00,WeatherDisplay:10.37,2013-01-26 21:57:00,
2013-01-26 15:02:00,49.2,14.8,29.69,NNW,347,5.0,5.0,25,0.00,CLR,,0.00,WeatherDisplay:10.37,2013-01-26 22:02:00,
2013-01-26 15:07:00,49.4,18.4,29.69,NE,52,8.1,8.1,29,0.00,CLR,,0.00,WeatherDisplay:10.37,2013-01-26 22:07:00,
2013-01-26 15:12:00,49.1,18.2,29.69,NNE,21,6.9,6.9,29,0.00,CLR,,0.00,WeatherDisplay:10.37,2013-01-26 22:12:00,
2013-01-26 15:17:00,48.9,18.0,29.70,ENE,67,5.8,5.8,29,0.00,CLR,,0.00,WeatherDisplay:10.37,2013-01-26 22:17:00,
2013-01-26 15:22:00,48.5,19.9,29.70,ENE,66,6.9,6.9,32,0.00,CLR,,0.00,WeatherDisplay:10.37,2013-01-26 22:22:00,
2013-01-26 15:27:00,48.0,20.2,29.70,ENE,66,6.9,6.9,33,0.00,CLR,,0.00,WeatherDisplay:10.37,2013-01-26 22:27:00,
2013-01-26 15:32:00,47.9,20.1,29.70,ENE,66,5.0,5.0,33,0.00,CLR,,0.00,WeatherDisplay:10.37,2013-01-26 22:32:00,
2013-01-26 15:37:00,47.7,20.7,29.70,NNE,12,6.0,6.0,34,0.00,CLR,,0.00,WeatherDisplay:10.37,2013-01-26 22:37:00,
2013-01-26 15:42:00,47.7,20.7,29.70,NE,55,5.8,5.8,34,0.00,CLR,,0.00,WeatherDisplay:10.37,2013-01-26 22:42:00,
2013-01-26 15:47:00,47.6,20.6,29.70,NE,36,6.9,6.9,34,0.00,CLR,,0.00,WeatherDisplay:10.37,2013-01-26 22:47:00,
2013-01-26 15:52:00,47.0,20.7,29.70,ENE,70,5.8,5.8,35,0.00,CLR,,0.00,WeatherDisplay:10.37,2013-01-26 22:52:00,
2013-01-26 15:57:00,46.2,20.7,29.70,ENE,73,6.9,6.9,36,0.00,CLR,,0.00,WeatherDisplay:10.37,2013-01-26 22:57:00,
2013-01-26 16:02:00,45.8,20.3,29.70,ENE,74,5.8,5.8,36,0.00,CLR,,0.00,WeatherDisplay:10.37,2013-01-26 23:02:00,
2013-01-26 16:07:00,45.7,20.9,29.70,ENE,74,8.1,8.1,37,0.00,CLR,,0.00,WeatherDisplay:10.37,2013-01-26 23:07:00,
2013-01-26 16:12:00,45.7,20.9,29.70,ENE,74,8.1,8.1,37,0.00,CLR,,0.00,WeatherDisplay:10.37,2013-01-26 23:12:00,
2013-01-26 16:17:00,45.5,20.7,29.71,ENE,74,4.6,4.6,37,0.00,CLR,,0.00,WeatherDisplay:10.37,2013-01-26 23:17:00,
2013-01-26 16:22:00,45.1,21.0,29.71,ENE,74,3.5,3.5,38,0.00,CLR,,0.00,WeatherDisplay:10.37,2013-01-26 23:22:00,
2013-01-26 16:27:00,44.6,20.5,29.71,ENE,74,3.5,3.5,38,0.00,CLR,,0.00,WeatherDisplay:10.37,2013-01-26 23:27:00,
2013-01-26 16:32:00,44.3,20.9,29.71,ENE,74,4.6,4.6,39,0.00,CLR,,0.00,WeatherDisplay:10.37,2013-01-26 23:32:00,
2013-01-26 16:37:00,44.2,20.8,29.71,ENE,74,3.5,3.5,39,0.00,CLR,,0.00,WeatherDisplay:10.37,2013-01-26 23:37:00,
2013-01-26 16:42:00,44.1,20.7,29.71,ENE,74,4.6,4.6,39,0.00,CLR,,0.00,WeatherDisplay:10.37,2013-01-26 23:42:00,
2013-01-26 16:47:00,43.8,21.0,29.72,ENE,74,5.8,5.8,40,0.00,CLR,,0.00,WeatherDisplay:10.37,2013-01-26 23:47:00,
2013-01-26 16:52:00,43.5,21.3,29.72,ENE,74,5.8,5.8,41,0.00,CLR,,0.00,WeatherDisplay:10.37,2013-01-26 23:52:00,
2013-01-26 16:57:00,43.3,21.1,29.72,ENE,74,5.8,5.8,41,0.00,CLR,,0.00,WeatherDisplay:10.37,2013-01-26 23:57:00,
2013-01-26 17:02:00,43.1,21.5,29.73,ENE,74,5.8,5.8,42,0.00,CLR,,0.00,WeatherDisplay:10.37,2013-01-27 00:02:00,
2013-01-26 17:07:00,42.8,21.3,29.73,ENE,74,4.6,4.6,42,0.00,CLR,,0.00,WeatherDisplay:10.37,2013-01-27 00:07:00,
2013-01-26 17:12:00,42.5,21.5,29.73,ENE,74,5.0,5.0,43,0.00,CLR,,0.00,WeatherDisplay:10.37,2013-01-27 00:12:00,
2013-01-26 17:17:00,42.3,20.8,29.74,ENE,74,3.5,3.5,42,0.00,CLR,,0.00,WeatherDisplay:10.37,2013-01-27 00:17:00,
2013-01-26 17:22:00,42.2,20.2,29.74,ENE,74,5.8,5.8,41,0.00,CLR,,0.00,WeatherDisplay:10.37,2013-01-27 00:22:00,
2013-01-26 17:27:00,42.1,20.1,29.74,ENE,74,4.6,4.6,41,0.00,CLR,,0.00,WeatherDisplay:10.37,2013-01-27 00:27:00,
2013-01-26 17:32:00,41.9,19.9,29.75,ENE,74,5.8,5.8,41,0.00,CLR,,0.00,WeatherDisplay:10.37,2013-01-27 00:32:00,
2013-01-26 17:37:00,41.8,19.8,29.75,ENE,74,4.6,4.6,41,0.00,CLR,,0.00,WeatherDisplay:10.37,2013-01-27 00:37:00,
2013-01-26 17:42:00,41.6,20.2,29.75,ENE,76,8.1,8.1,42,0.00,CLR,,0.00,WeatherDisplay:10.37,2013-01-27 00:42:00,
2013-01-26 17:47:00,41.6,20.2,29.75,East,81,4.6,4.6,42,0.00,CLR,,0.00,WeatherDisplay:10.37,2013-01-27 00:47:00,
2013-01-26 17:52:00,41.5,20.1,29.75,East,81,6.9,6.9,42,0.00,CLR,,0.00,WeatherDisplay:10.37,2013-01-27 00:52:00,
2013-01-26 17:57:00,41.3,21.0,29.75,ENE,74,5.8,5.8,44,0.00,CLR,,0.00,WeatherDisplay:10.37,2013-01-27 00:57:00,
2013-01-26 18:02:00,41.1,21.9,29.75,ENE,70,4.6,4.6,46,0.00,CLR,,0.00,WeatherDisplay:10.37,2013-01-27 01:02:00,
2013-01-26 18:07:00,40.8,21.6,29.75,ENE,76,5.8,5.8,46,0.00,CLR,,0.00,WeatherDisplay:10.37,2013-01-27 01:07:00,
2013-01-26 18:12:00,40.6,21.4,29.75,ENE,76,2.3,2.3,46,0.00,CLR,,0.00,WeatherDisplay:10.37,2013-01-27 01:12:00,
2013-01-26 18:17:00,40.5,21.8,29.75,ENE,76,5.8,5.8,47,0.00,CLR,,0.00,WeatherDisplay:10.37,2013-01-27 01:17:00,
2013-01-26 18:22:00,40.1,21.5,29.75,ENE,76,5.0,5.0,47,0.00,CLR,,0.00,WeatherDisplay:10.37,2013-01-27 01:22:00,
2013-01-26 18:27:00,39.6,21.5,29.75,ENE,76,4.6,4.6,48,0.00,CLR,,0.00,WeatherDisplay:10.37,2013-01-27 01:27:00,
2013-01-26 18:32:00,39.9,20.8,29.76,East,80,4.6,4.6,46,0.00,CLR,,0.00,WeatherDisplay:10.37,2013-01-27 01:32:00,
2013-01-26 18:37:00,40.3,20.6,29.76,East,80,3.5,3.5,45,0.00,CLR,,0.00,WeatherDisplay:10.37,2013-01-27 01:37:00,
2013-01-26 18:42:00,40.5,20.8,29.76,East,80,3.5,3.5,45,0.00,CLR,,0.00,WeatherDisplay:10.37,2013-01-27 01:42:00,
2013-01-26 18:47:00,40.3,20.6,29.75,East,80,3.5,3.5,45,0.00,CLR,,0.00,WeatherDisplay:10.37,2013-01-27 01:47:00,
2013-01-26 18:52:00,40.3,21.1,29.75,East,80,3.5,3.5,46,0.00,CLR,,0.00,WeatherDisplay:10.37,2013-01-27 01:52:00,
2013-01-26 18:57:00,40.2,21.0,29.75,East,81,3.5,3.5,46,0.00,CLR,,0.00,WeatherDisplay:10.37,2013-01-27 01:57:00,
2013-01-26 19:02:00,40.3,21.1,29.76,East,81,2.3,2.3,46,0.00,CLR,,0.00,WeatherDisplay:10.37,2013-01-27 02:02:00,
2013-01-26 19:07:00,40.2,22.1,29.76,East,84,8.1,8.1,48,0.00,CLR,,0.00,WeatherDisplay:10.37,2013-01-27 02:07:00,
2013-01-26 19:12:00,40.2,22.1,29.76,East,84,4.6,4.6,48,0.00,CLR,,0.00,WeatherDisplay:10.37,2013-01-27 02:12:00,
2013-01-26 19:17:00,40.1,22.4,29.74,East,84,2.3,2.3,49,0.00,CLR,,0.00,WeatherDisplay:10.37,2013-01-27 02:17:00,
2013-01-26 19:22:00,39.8,23.1,29.74,East,86,10.0,10.0,51,0.00,CLR,,0.00,WeatherDisplay:10.37,2013-01-27 02:22:00,
2013-01-26 19:27:00,39.2,24.4,29.74,SE,142,6.0,6.0,55,0.00,CLR,,0.00,WeatherDisplay:10.37,2013-01-27 02:27:00,
2013-01-26 19:32:00,38.8,24.9,29.75,SSE,152,6.0,6.0,57,0.00,CLR,,0.00,WeatherDisplay:10.37,2013-01-27 02:32:00,
2013-01-26 19:37:00,38.5,25.8,29.75,SE,142,5.8,5.8,60,0.00,CLR,,0.00,WeatherDisplay:10.37,2013-01-27 02:37:00,
2013-01-26 19:42:00,38.0,25.7,29.75,SSE,151,3.5,3.5,61,0.00,CLR,,0.00,WeatherDisplay:10.37,2013-01-27 02:42:00,
2013-01-26 19:47:00,37.9,26.0,29.75,SE,138,5.8,5.8,62,0.00,CLR,,0.00,WeatherDisplay:10.37,2013-01-27 02:47:00,
2013-01-26 19:52:00,37.3,26.6,29.75,SE,135,3.5,3.5,65,0.00,CLR,,0.00,WeatherDisplay:10.37,2013-01-27 02:52:00,
2013-01-26 19:57:00,36.5,28.0,29.75,SE,134,5.0,5.0,71,0.00,CLR,,0.00,WeatherDisplay:10.37,2013-01-27 02:57:00,
2013-01-26 20:02:00,35.9,28.4,29.75,SE,134,2.3,2.3,74,0.00,CLR,,0.00,WeatherDisplay:10.37,2013-01-27 03:02:00,
2013-01-26 20:07:00,35.5,28.7,29.75,SE,134,1.0,0.0,76,0.00,CLR,,0.00,WeatherDisplay:10.37,2013-01-27 03:07:00,
2013-01-26 20:12:00,35.3,28.8,29.75,SE,134,2.3,2.3,77,0.00,CLR,,0.00,WeatherDisplay:10.37,2013-01-27 03:12:00,
2013-01-26 20:17:00,35.0,28.8,29.72,SE,134,1.2,0.0,78,0.00,CLR,,0.00,WeatherDisplay:10.37,2013-01-27 03:17:00,
2013-01-26 20:22:00,34.9,28.7,29.72,SE,134,0.0,0.0,78,0.00,CLR,,0.00,WeatherDisplay:10.37,2013-01-27 03:22:00,
2013-01-26 20:27:00,34.9,29.0,29.72,SE,134,0.0,0.0,79,0.00,CLR,,0.00,WeatherDisplay:10.37,2013-01-27 03:27:00,
2013-01-26 20:32:00,34.7,29.2,29.72,SE,134,0.0,0.0,80,0.00,CLR,,0.00,WeatherDisplay:10.37,2013-01-27 03:32:00,
2013-01-26 20:37:00,34.6,29.1,29.72,SE,134,0.0,0.0,80,0.00,CLR,,0.00,WeatherDisplay:10.37,2013-01-27 03:37:00,
2013-01-26 20:42:00,34.4,29.2,29.72,SE,134,0.0,0.0,81,0.00,CLR,,0.00,WeatherDisplay:10.37,2013-01-27 03:42:00,
2013-01-26 20:47:00,34.3,29.1,29.70,SE,134,0.0,0.0,81,0.00,CLR,,0.00,WeatherDisplay:10.37,2013-01-27 03:47:00,
2013-01-26 20:52:00,34.1,28.9,29.70,SE,134,0.0,0.0,81,0.00,CLR,,0.00,WeatherDisplay:10.37,2013-01-27 03:52:00,
2013-01-26 20:57:00,33.8,28.9,29.70,SE,134,0.0,0.0,82,0.00,CLR,,0.00,WeatherDisplay:10.37,2013-01-27 03:57:00,
2013-01-26 21:02:00,33.7,28.8,29.70,SE,134,0.0,0.0,82,0.00,CLR,,0.00,WeatherDisplay:10.37,2013-01-27 04:02:00,
2013-01-26 21:07:00,33.4,28.8,29.70,SE,134,0.0,0.0,83,0.00,CLR,,0.00,WeatherDisplay:10.37,2013-01-27 04:07:00,
2013-01-26 21:12:00,33.2,28.6,29.70,SE,134,0.0,0.0,83,0.00,CLR,,0.00,WeatherDisplay:10.37,2013-01-27 04:12:00,
2013-01-26 21:17:00,33.1,28.5,29.69,SE,134,0.0,0.0,83,0.00,CLR,,0.00,WeatherDisplay:10.37,2013-01-27 04:17:00,
2013-01-26 21:22:00,32.8,28.5,29.69,SE,134,0.0,0.0,84,0.00,CLR,,0.00,WeatherDisplay:10.37,2013-01-27 04:22:00,
2013-01-26 21:27:00,32.7,28.4,29.69,SE,134,0.0,0.0,84,0.00,CLR,,0.00,WeatherDisplay:10.37,2013-01-27 04:27:00,
2013-01-26 21:32:00,32.5,28.5,29.69,SE,134,0.0,0.0,85,0.00,CLR,,0.00,WeatherDisplay:10.37,2013-01-27 04:32:00,
2013-01-26 21:37:00,32.5,28.5,29.69,SE,134,0.0,0.0,85,0.00,CLR,,0.00,WeatherDisplay:10.37,2013-01-27 04:37:00,
2013-01-26 21:42:00,32.4,28.7,29.69,SE,134,0.0,0.0,86,0.00,CLR,,0.00,WeatherDisplay:10.37,2013-01-27 04:42:00,
2013-01-26 21:47:00,32.4,28.7,29.70,SE,134,0.0,0.0,86,0.00,CLR,,0.00,WeatherDisplay:10.37,2013-01-27 04:47:00,
2013-01-26 21:52:00,32.2,28.5,29.70,SE,134,0.0,0.0,86,0.00,CLR,,0.00,WeatherDisplay:10.37,2013-01-27 04:52:00,
2013-01-26 21:57:00,32.1,28.4,29.70,SE,134,1.2,1.2,86,0.00,CLR,,0.00,WeatherDisplay:10.37,2013-01-27 04:57:00,
2013-01-26 22:00:00,31.9,28.2,29.70,SE,134,0.0,0.0,86,0.00,CLR,,0.00,WeatherDisplay:10.37,2013-01-27 05:00:00,
2013-01-26 22:01:00,31.9,28.2,29.70,SE,134,0.0,0.0,86,0.00,CLR,,0.00,WeatherDisplay:10.37,2013-01-27 05:01:00,
2013-01-26 22:03:00,31.9,28.2,29.70,SE,134,1.2,1.2,86,0.00,CLR,,0.00,WeatherDisplay:10.37,2013-01-27 05:03:00,
2013-01-26 22:08:00,31.9,28.2,29.70,SE,134,0.0,0.0,86,0.00,CLR,,0.00,WeatherDisplay:10.37,2013-01-27 05:08:00,
2013-01-26 22:13:00,31.6,27.9,29.70,SE,134,0.0,0.0,86,0.00,CLR,,0.00,WeatherDisplay:10.37,2013-01-27 05:13:00,
2013-01-26 22:18:00,31.3,27.9,29.67,SE,134,0.0,0.0,87,0.00,CLR,,0.00,WeatherDisplay:10.37,2013-01-27 05:18:00,
2013-01-26 22:23:00,31.2,27.8,29.67,SE,134,0.0,0.0,87,0.00,CLR,,0.00,WeatherDisplay:10.37,2013-01-27 05:23:00,
2013-01-26 22:28:00,31.0,27.6,29.67,SE,134,0.0,0.0,87,0.00,CLR,,0.00,WeatherDisplay:10.37,2013-01-27 05:28:00,
2013-01-26 22:33:00,30.7,27.3,29.68,SE,134,0.0,0.0,87,0.00,CLR,,0.00,WeatherDisplay:10.37,2013-01-27 05:33:00,
2013-01-26 22:38:00,30.6,27.2,29.68,SE,134,0.0,0.0,87,0.00,CLR,,0.00,WeatherDisplay:10.37,2013-01-27 05:38:00,
2013-01-26 22:43:00,30.4,27.0,29.68,SE,134,0.0,0.0,87,0.00,CLR,,0.00,WeatherDisplay:10.37,2013-01-27 05:43:00,
2013-01-26 22:48:00,30.3,26.9,29.68,SE,134,0.0,0.0,87,0.00,CLR,,0.00,WeatherDisplay:10.37,2013-01-27 05:48:00,
2013-01-26 22:53:00,30.1,26.7,29.68,SE,134,0.0,0.0,87,0.00,CLR,,0.00,WeatherDisplay:10.37,2013-01-27 05:53:00,
2013-01-26 22:58:00,30.1,27.0,29.68,SE,134,1.2,1.2,88,0.00,CLR,,0.00,WeatherDisplay:10.37,2013-01-27 05:58:00,
2013-01-26 23:03:00,30.3,27.2,29.68,SE,134,2.3,2.3,88,0.00,CLR,,0.00,WeatherDisplay:10.37,2013-01-27 06:03:00,
2013-01-26 23:08:00,30.3,27.2,29.68,SE,134,0.0,0.0,88,0.00,CLR,,0.00,WeatherDisplay:10.37,2013-01-27 06:08:00,
2013-01-26 23:13:00,30.3,27.2,29.68,SE,134,1.2,0.0,88,0.00,CLR,,0.00,WeatherDisplay:10.37,2013-01-27 06:13:00,
2013-01-26 23:18:00,30.3,27.2,29.68,SE,134,2.0,2.0,88,0.00,CLR,,0.00,WeatherDisplay:10.37,2013-01-27 06:18:00,
2013-01-26 23:23:00,30.4,27.5,29.68,SE,134,2.3,2.3,89,0.00,CLR,,0.00,WeatherDisplay:10.37,2013-01-27 06:23:00,
2013-01-26 23:28:00,30.4,27.5,29.68,SE,134,1.0,1.0,89,0.00,CLR,,0.00,WeatherDisplay:10.37,2013-01-27 06:28:00,
2013-01-26 23:33:00,30.6,27.7,29.66,SE,134,0.0,0.0,89,0.00,CLR,,0.00,WeatherDisplay:10.37,2013-01-27 06:33:00,
2013-01-26 23:38:00,30.6,27.7,29.66,SE,134,1.2,1.2,89,0.00,CLR,,0.00,WeatherDisplay:10.37,2013-01-27 06:38:00,
2013-01-26 23:43:00,30.6,27.7,29.66,SE,134,0.0,0.0,89,0.00,CLR,,0.00,WeatherDisplay:10.37,2013-01-27 06:43:00,
2013-01-26 23:48:00,30.6,27.7,29.64,SE,134,0.0,0.0,89,0.00,CLR,,0.00,WeatherDisplay:10.37,2013-01-27 06:48:00,
2013-01-26 23:53:00,30.6,27.7,29.64,SE,134,0.0,0.0,89,0.00,CLR,,0.00,WeatherDisplay:10.37,2013-01-27 06:53:00,
2013-01-26 23:58:00,30.6,27.7,29.64,SE,134,0.0,0.0,89,0.00,CLR,,0.00,WeatherDisplay:10.37,2013-01-27 06:58:00,